sensor_id;sensor_type;location;lat;lon;timestamp;pressure;altitude;pressure_sealevel;temperature
74321;BMP280;62738;45.772;4.804;2022-12-13T00:01:45;98468.91;;;0.73
74321;BMP280;62738;45.772;4.804;2022-12-13T00:04:11;98465.25;;;0.71
74321;BMP280;62738;45.772;4.804;2022-12-13T00:06:39;98460.91;;;0.62
74321;BMP280;62738;45.772;4.804;2022-12-13T00:09:05;98461.00;;;0.56
74321;BMP280;62738;45.772;4.804;2022-12-13T00:11:32;98459.25;;;0.72
74321;BMP280;62738;45.772;4.804;2022-12-13T00:14:00;98457.78;;;0.71
74321;BMP280;62738;45.772;4.804;2022-12-13T00:16:27;98465.25;;;0.71
74321;BMP280;62738;45.772;4.804;2022-12-13T00:18:56;98454.16;;;0.82
74321;BMP280;62738;45.772;4.804;2022-12-13T00:21:29;98452.38;;;0.97
74321;BMP280;62738;45.772;4.804;2022-12-13T00:23:57;98442.66;;;1.15
74321;BMP280;62738;45.772;4.804;2022-12-13T00:26:26;98450.19;;;1.09
74321;BMP280;62738;45.772;4.804;2022-12-13T00:28:53;98451.44;;;0.95
74321;BMP280;62738;45.772;4.804;2022-12-13T00:31:22;98441.50;;;1.11
74321;BMP280;62738;45.772;4.804;2022-12-13T00:34:09;98437.34;;;0.78
74321;BMP280;62738;45.772;4.804;2022-12-13T00:36:35;98435.25;;;0.84
74321;BMP280;62738;45.772;4.804;2022-12-13T00:39:02;98421.81;;;0.99
74321;BMP280;62738;45.772;4.804;2022-12-13T00:41:33;98411.34;;;1.03
74321;BMP280;62738;45.772;4.804;2022-12-13T00:44:01;98399.78;;;1.10
74321;BMP280;62738;45.772;4.804;2022-12-13T00:46:29;98403.06;;;1.22
74321;BMP280;62738;45.772;4.804;2022-12-13T00:48:58;98407.88;;;1.02
74321;BMP280;62738;45.772;4.804;2022-12-13T00:51:28;98398.09;;;1.07
74321;BMP280;62738;45.772;4.804;2022-12-13T00:53:55;98390.63;;;0.94
74321;BMP280;62738;45.772;4.804;2022-12-13T00:56:24;98405.47;;;1.12
74321;BMP280;62738;45.772;4.804;2022-12-13T00:58:52;98402.41;;;1.29
74321;BMP280;62738;45.772;4.804;2022-12-13T02:02:14;98363.69;;;0.91
74321;BMP280;62738;45.772;4.804;2022-12-13T02:07:19;98356.94;;;0.92
74321;BMP280;62738;45.772;4.804;2022-12-13T02:09:51;98350.84;;;0.86
74321;BMP280;62738;45.772;4.804;2022-12-13T02:12:26;98351.25;;;1.03
74321;BMP280;62738;45.772;4.804;2022-12-13T02:14:57;98348.75;;;1.05
74321;BMP280;62738;45.772;4.804;2022-12-13T02:17:51;98345.06;;;1.02
74321;BMP280;62738;45.772;4.804;2022-12-13T02:20:33;98342.88;;;1.14
74321;BMP280;62738;45.772;4.804;2022-12-13T02:31:15;98322.25;;;1.26
74321;BMP280;62738;45.772;4.804;2022-12-13T02:41:50;98328.16;;;1.17
74321;BMP280;62738;45.772;4.804;2022-12-13T02:44:23;98323.34;;;1.10
74321;BMP280;62738;45.772;4.804;2022-12-13T02:47:00;98334.03;;;0.95
74321;BMP280;62738;45.772;4.804;2022-12-13T02:49:30;98326.72;;;0.90
74321;BMP280;62738;45.772;4.804;2022-12-13T02:51:59;98333.22;;;1.13
74321;BMP280;62738;45.772;4.804;2022-12-13T02:54:26;98320.28;;;1.14
74321;BMP280;62738;45.772;4.804;2022-12-13T02:56:57;98317.44;;;1.06
74321;BMP280;62738;45.772;4.804;2022-12-13T02:59:29;98317.97;;;1.18
74321;BMP280;62738;45.772;4.804;2022-12-13T03:05:07;98299.28;;;1.22
74321;BMP280;62738;45.772;4.804;2022-12-13T03:08:17;98301.28;;;1.21
74321;BMP280;62738;45.772;4.804;2022-12-13T03:10:54;98294.34;;;1.20
74321;BMP280;62738;45.772;4.804;2022-12-13T03:13:53;98289.88;;;1.30
74321;BMP280;62738;45.772;4.804;2022-12-13T03:16:42;98288.25;;;1.14
74321;BMP280;62738;45.772;4.804;2022-12-13T03:19:10;98281.75;;;1.17
74321;BMP280;62738;45.772;4.804;2022-12-13T03:21:40;98280.44;;;1.31
74321;BMP280;62738;45.772;4.804;2022-12-13T03:24:16;98279.34;;;1.34
74321;BMP280;62738;45.772;4.804;2022-12-13T03:26:44;98284.69;;;1.40
74321;BMP280;62738;45.772;4.804;2022-12-13T03:29:10;98273.28;;;1.28
74321;BMP280;62738;45.772;4.804;2022-12-13T03:31:37;98273.75;;;1.19
74321;BMP280;62738;45.772;4.804;2022-12-13T03:34:04;98278.38;;;1.11
74321;BMP280;62738;45.772;4.804;2022-12-13T03:36:31;98268.94;;;0.99
74321;BMP280;62738;45.772;4.804;2022-12-13T03:38:57;98276.59;;;1.00
74321;BMP280;62738;45.772;4.804;2022-12-13T03:41:25;98275.97;;;1.21
74321;BMP280;62738;45.772;4.804;2022-12-13T03:44:02;98276.06;;;1.15
74321;BMP280;62738;45.772;4.804;2022-12-13T03:46:30;98280.81;;;1.35
74321;BMP280;62738;45.772;4.804;2022-12-13T03:48:57;98276.88;;;1.23
74321;BMP280;62738;45.772;4.804;2022-12-13T03:51:23;98277.13;;;1.46
74321;BMP280;62738;45.772;4.804;2022-12-13T03:53:50;98272.44;;;1.33
74321;BMP280;62738;45.772;4.804;2022-12-13T03:56:16;98274.13;;;1.23
74321;BMP280;62738;45.772;4.804;2022-12-13T03:58:43;98276.28;;;1.17
74321;BMP280;62738;45.772;4.804;2022-12-13T04:01:14;98275.66;;;1.11
74321;BMP280;62738;45.772;4.804;2022-12-13T04:03:44;98268.63;;;1.16
74321;BMP280;62738;45.772;4.804;2022-12-13T04:06:11;98269.75;;;1.20
74321;BMP280;62738;45.772;4.804;2022-12-13T04:08:48;98257.16;;;1.38
74321;BMP280;62738;45.772;4.804;2022-12-13T04:11:16;98257.91;;;1.38
74321;BMP280;62738;45.772;4.804;2022-12-13T04:14:11;98255.31;;;1.54
74321;BMP280;62738;45.772;4.804;2022-12-13T04:16:49;98248.34;;;1.66
74321;BMP280;62738;45.772;4.804;2022-12-13T04:19:16;98246.78;;;1.36
74321;BMP280;62738;45.772;4.804;2022-12-13T04:21:49;98248.75;;;1.15
74321;BMP280;62738;45.772;4.804;2022-12-13T04:24:16;98254.22;;;1.49
74321;BMP280;62738;45.772;4.804;2022-12-13T04:26:42;98256.50;;;1.79
74321;BMP280;62738;45.772;4.804;2022-12-13T04:29:09;98254.19;;;1.28
74321;BMP280;62738;45.772;4.804;2022-12-13T04:31:35;98254.25;;;1.36
74321;BMP280;62738;45.772;4.804;2022-12-13T04:34:02;98258.41;;;1.50
74321;BMP280;62738;45.772;4.804;2022-12-13T04:36:29;98257.06;;;1.44
74321;BMP280;62738;45.772;4.804;2022-12-13T04:39:01;98254.75;;;1.34
74321;BMP280;62738;45.772;4.804;2022-12-13T04:41:48;98254.75;;;1.34
74321;BMP280;62738;45.772;4.804;2022-12-13T04:44:15;98256.75;;;1.34
74321;BMP280;62738;45.772;4.804;2022-12-13T04:46:55;98256.53;;;1.45
74321;BMP280;62738;45.772;4.804;2022-12-13T04:49:26;98252.06;;;1.55
74321;BMP280;62738;45.772;4.804;2022-12-13T04:51:53;98253.72;;;1.58
74321;BMP280;62738;45.772;4.804;2022-12-13T04:54:26;98256.00;;;1.47
74321;BMP280;62738;45.772;4.804;2022-12-13T04:57:02;98249.00;;;1.59
74321;BMP280;62738;45.772;4.804;2022-12-13T04:59:29;98240.28;;;1.60
74321;BMP280;62738;45.772;4.804;2022-12-13T05:01:55;98222.34;;;1.52
74321;BMP280;62738;45.772;4.804;2022-12-13T05:04:22;98221.00;;;1.66
74321;BMP280;62738;45.772;4.804;2022-12-13T05:06:56;98217.75;;;1.67
74321;BMP280;62738;45.772;4.804;2022-12-13T05:09:23;98219.63;;;1.73
74321;BMP280;62738;45.772;4.804;2022-12-13T05:11:49;98215.91;;;1.91
74321;BMP280;62738;45.772;4.804;2022-12-13T05:14:16;98214.22;;;1.80
74321;BMP280;62738;45.772;4.804;2022-12-13T05:16:49;98215.50;;;1.87
74321;BMP280;62738;45.772;4.804;2022-12-13T05:19:16;98223.00;;;1.86
74321;BMP280;62738;45.772;4.804;2022-12-13T05:21:42;98238.88;;;1.67
74321;BMP280;62738;45.772;4.804;2022-12-13T05:24:09;98229.81;;;1.72
74321;BMP280;62738;45.772;4.804;2022-12-13T05:26:35;98247.94;;;1.62
74321;BMP280;62738;45.772;4.804;2022-12-13T05:29:02;98253.47;;;1.49
74321;BMP280;62738;45.772;4.804;2022-12-13T05:31:29;98252.78;;;1.35
74321;BMP280;62738;45.772;4.804;2022-12-13T05:33:55;98247.19;;;1.20
74321;BMP280;62738;45.772;4.804;2022-12-13T05:36:27;98247.91;;;1.20
74321;BMP280;62738;45.772;4.804;2022-12-13T05:38:54;98250.66;;;1.07
74321;BMP280;62738;45.772;4.804;2022-12-13T05:41:22;98237.78;;;1.28
74321;BMP280;62738;45.772;4.804;2022-12-13T05:43:52;98239.94;;;1.43
74321;BMP280;62738;45.772;4.804;2022-12-13T05:46:19;98235.47;;;1.32
74321;BMP280;62738;45.772;4.804;2022-12-13T05:48:45;98240.56;;;1.15
74321;BMP280;62738;45.772;4.804;2022-12-13T05:51:12;98245.19;;;1.07
74321;BMP280;62738;45.772;4.804;2022-12-13T05:53:39;98250.25;;;1.03
74321;BMP280;62738;45.772;4.804;2022-12-13T05:56:07;98253.81;;;0.98
74321;BMP280;62738;45.772;4.804;2022-12-13T05:58:35;98259.69;;;1.15
74321;BMP280;62738;45.772;4.804;2022-12-13T06:01:07;98247.50;;;1.16
74321;BMP280;62738;45.772;4.804;2022-12-13T06:03:34;98241.84;;;1.14
74321;BMP280;62738;45.772;4.804;2022-12-13T06:06:02;98244.16;;;1.10
74321;BMP280;62738;45.772;4.804;2022-12-13T06:08:30;98242.47;;;1.07
74321;BMP280;62738;45.772;4.804;2022-12-13T06:10:58;98234.19;;;0.99
74321;BMP280;62738;45.772;4.804;2022-12-13T06:13:39;98252.53;;;1.12
74321;BMP280;62738;45.772;4.804;2022-12-13T06:16:10;98259.91;;;1.17
74321;BMP280;62738;45.772;4.804;2022-12-13T06:18:48;98264.03;;;1.31
74321;BMP280;62738;45.772;4.804;2022-12-13T06:21:16;98265.56;;;1.40
74321;BMP280;62738;45.772;4.804;2022-12-13T06:23:42;98269.44;;;1.45
74321;BMP280;62738;45.772;4.804;2022-12-13T06:26:09;98268.03;;;1.30
74321;BMP280;62738;45.772;4.804;2022-12-13T06:28:35;98271.38;;;1.57
74321;BMP280;62738;45.772;4.804;2022-12-13T06:31:02;98271.88;;;1.35
74321;BMP280;62738;45.772;4.804;2022-12-13T06:33:30;98276.44;;;1.32
74321;BMP280;62738;45.772;4.804;2022-12-13T06:36:02;98272.66;;;1.22
74321;BMP280;62738;45.772;4.804;2022-12-13T06:38:29;98272.63;;;1.35
74321;BMP280;62738;45.772;4.804;2022-12-13T06:43:34;98266.63;;;1.16
74321;BMP280;62738;45.772;4.804;2022-12-13T06:46:04;98266.16;;;1.25
74321;BMP280;62738;45.772;4.804;2022-12-13T06:48:31;98278.22;;;1.30
74321;BMP280;62738;45.772;4.804;2022-12-13T06:51:00;98278.22;;;1.30
74321;BMP280;62738;45.772;4.804;2022-12-13T06:53:27;98279.97;;;1.41
74321;BMP280;62738;45.772;4.804;2022-12-13T06:55:54;98279.75;;;1.38
74321;BMP280;62738;45.772;4.804;2022-12-13T06:58:22;98283.06;;;1.58
74321;BMP280;62738;45.772;4.804;2022-12-13T07:00:48;98284.47;;;1.72
74321;BMP280;62738;45.772;4.804;2022-12-13T07:03:15;98277.78;;;1.60
74321;BMP280;62738;45.772;4.804;2022-12-13T07:05:41;98279.19;;;1.53
74321;BMP280;62738;45.772;4.804;2022-12-13T07:08:08;98282.47;;;1.52
74321;BMP280;62738;45.772;4.804;2022-12-13T07:10:37;98281.50;;;1.28
74321;BMP280;62738;45.772;4.804;2022-12-13T07:13:04;98287.47;;;1.27
74321;BMP280;62738;45.772;4.804;2022-12-13T07:15:32;98294.78;;;1.45
74321;BMP280;62738;45.772;4.804;2022-12-13T07:17:59;98288.56;;;1.45
74321;BMP280;62738;45.772;4.804;2022-12-13T07:20:26;98295.34;;;1.30
74321;BMP280;62738;45.772;4.804;2022-12-13T07:22:52;98304.81;;;1.29
74321;BMP280;62738;45.772;4.804;2022-12-13T07:25:24;98321.66;;;1.20
74321;BMP280;62738;45.772;4.804;2022-12-13T07:27:59;98342.44;;;1.10
74321;BMP280;62738;45.772;4.804;2022-12-13T07:30:28;98344.66;;;1.12
74321;BMP280;62738;45.772;4.804;2022-12-13T07:32:54;98344.13;;;1.00
74321;BMP280;62738;45.772;4.804;2022-12-13T07:35:21;98344.13;;;1.00
74321;BMP280;62738;45.772;4.804;2022-12-13T07:37:47;98347.38;;;0.98
74321;BMP280;62738;45.772;4.804;2022-12-13T07:40:14;98350.84;;;0.99
74321;BMP280;62738;45.772;4.804;2022-12-13T07:42:48;98353.91;;;1.22
74321;BMP280;62738;45.772;4.804;2022-12-13T07:45:15;98364.72;;;1.14
74321;BMP280;62738;45.772;4.804;2022-12-13T07:47:41;98366.59;;;1.19
74321;BMP280;62738;45.772;4.804;2022-12-13T07:50:10;98368.81;;;1.21
74321;BMP280;62738;45.772;4.804;2022-12-13T07:52:51;98373.31;;;1.18
74321;BMP280;62738;45.772;4.804;2022-12-13T07:55:18;98383.19;;;1.08
74321;BMP280;62738;45.772;4.804;2022-12-13T07:58:10;98383.59;;;1.25
74321;BMP280;62738;45.772;4.804;2022-12-13T08:00:38;98372.38;;;1.16
74321;BMP280;62738;45.772;4.804;2022-12-13T08:03:11;98365.88;;;1.19
74321;BMP280;62738;45.772;4.804;2022-12-13T08:06:01;98366.91;;;1.29
74321;BMP280;62738;45.772;4.804;2022-12-13T08:08:29;98364.47;;;1.25
74321;BMP280;62738;45.772;4.804;2022-12-13T08:11:07;98364.47;;;1.25
74321;BMP280;62738;45.772;4.804;2022-12-13T08:13:35;98378.47;;;1.22
74321;BMP280;62738;45.772;4.804;2022-12-13T08:16:04;98376.78;;;1.19
74321;BMP280;62738;45.772;4.804;2022-12-13T08:18:51;98371.22;;;1.11
74321;BMP280;62738;45.772;4.804;2022-12-13T08:21:38;98375.31;;;1.18
74321;BMP280;62738;45.772;4.804;2022-12-13T08:24:27;98385.28;;;1.28
74321;BMP280;62738;45.772;4.804;2022-12-13T08:26:56;98391.28;;;1.14
74321;BMP280;62738;45.772;4.804;2022-12-13T08:29:30;98398.31;;;1.22
74321;BMP280;62738;45.772;4.804;2022-12-13T08:32:06;98387.38;;;1.22
74321;BMP280;62738;45.772;4.804;2022-12-13T08:34:33;98393.78;;;1.25
74321;BMP280;62738;45.772;4.804;2022-12-13T08:37:00;98397.03;;;1.23
74321;BMP280;62738;45.772;4.804;2022-12-13T08:39:34;98406.09;;;1.05
74321;BMP280;62738;45.772;4.804;2022-12-13T08:42:04;98416.06;;;1.16
74321;BMP280;62738;45.772;4.804;2022-12-13T08:44:52;98418.28;;;1.17
74321;BMP280;62738;45.772;4.804;2022-12-13T08:47:20;98419.31;;;1.27
74321;BMP280;62738;45.772;4.804;2022-12-13T08:49:52;98417.00;;;1.31
74321;BMP280;62738;45.772;4.804;2022-12-13T08:52:20;98413.84;;;1.27
74321;BMP280;62738;45.772;4.804;2022-12-13T08:54:46;98424.13;;;1.34
74321;BMP280;62738;45.772;4.804;2022-12-13T08:57:13;98421.63;;;1.10
74321;BMP280;62738;45.772;4.804;2022-12-13T08:59:41;98424.47;;;1.18
74321;BMP280;62738;45.772;4.804;2022-12-13T09:02:12;98428.66;;;1.45
74321;BMP280;62738;45.772;4.804;2022-12-13T09:04:38;98419.28;;;1.67
74321;BMP280;62738;45.772;4.804;2022-12-13T09:07:05;98427.34;;;1.73
74321;BMP280;62738;45.772;4.804;2022-12-13T09:09:32;98435.88;;;1.82
74321;BMP280;62738;45.772;4.804;2022-12-13T09:11:58;98442.81;;;1.83
74321;BMP280;62738;45.772;4.804;2022-12-13T09:14:26;98440.72;;;1.63
74321;BMP280;62738;45.772;4.804;2022-12-13T09:17:00;98443.66;;;1.65
74321;BMP280;62738;45.772;4.804;2022-12-13T09:19:29;98455.00;;;1.82
74321;BMP280;62738;45.772;4.804;2022-12-13T09:22:03;98462.16;;;1.72
74321;BMP280;62738;45.772;4.804;2022-12-13T09:24:30;98449.13;;;1.65
74321;BMP280;62738;45.772;4.804;2022-12-13T09:27:03;98461.22;;;1.83
74321;BMP280;62738;45.772;4.804;2022-12-13T09:29:35;98472.59;;;1.94
74321;BMP280;62738;45.772;4.804;2022-12-13T09:32:02;98477.81;;;2.19
74321;BMP280;62738;45.772;4.804;2022-12-13T09:34:29;98479.00;;;2.10
74321;BMP280;62738;45.772;4.804;2022-12-13T09:36:57;98479.13;;;2.04
74321;BMP280;62738;45.772;4.804;2022-12-13T09:39:27;98481.84;;;1.91
74321;BMP280;62738;45.772;4.804;2022-12-13T09:41:57;98480.69;;;2.13
74321;BMP280;62738;45.772;4.804;2022-12-13T09:44:33;98466.53;;;2.22
74321;BMP280;62738;45.772;4.804;2022-12-13T09:47:19;98477.09;;;2.39
74321;BMP280;62738;45.772;4.804;2022-12-13T09:49:50;98484.56;;;2.38
74321;BMP280;62738;45.772;4.804;2022-12-13T09:52:20;98469.75;;;2.55
74321;BMP280;62738;45.772;4.804;2022-12-13T09:54:54;98465.69;;;2.48
74321;BMP280;62738;45.772;4.804;2022-12-13T09:57:25;98466.75;;;2.45
74321;BMP280;62738;45.772;4.804;2022-12-13T10:00:00;98467.03;;;2.55
74321;BMP280;62738;45.772;4.804;2022-12-13T10:02:30;98461.81;;;2.44
74321;BMP280;62738;45.772;4.804;2022-12-13T10:07:50;98458.28;;;2.56
74321;BMP280;62738;45.772;4.804;2022-12-13T10:10:19;98457.41;;;2.61
74321;BMP280;62738;45.772;4.804;2022-12-13T10:12:52;98463.00;;;2.76
74321;BMP280;62738;45.772;4.804;2022-12-13T10:15:22;98468.66;;;2.78
74321;BMP280;62738;45.772;4.804;2022-12-13T10:17:50;98463.38;;;2.81
74321;BMP280;62738;45.772;4.804;2022-12-13T10:20:21;98458.72;;;2.89
74321;BMP280;62738;45.772;4.804;2022-12-13T10:22:51;98453.94;;;2.61
74321;BMP280;62738;45.772;4.804;2022-12-13T10:25:51;98465.34;;;2.72
74321;BMP280;62738;45.772;4.804;2022-12-13T10:28:30;98467.88;;;2.70
74321;BMP280;62738;45.772;4.804;2022-12-13T10:30:59;98464.53;;;2.64
74321;BMP280;62738;45.772;4.804;2022-12-13T10:33:31;98473.16;;;2.68
74321;BMP280;62738;45.772;4.804;2022-12-13T10:36:07;98469.56;;;2.73
74321;BMP280;62738;45.772;4.804;2022-12-13T10:38:40;98467.41;;;3.08
74321;BMP280;62738;45.772;4.804;2022-12-13T10:41:39;98464.31;;;3.04
74321;BMP280;62738;45.772;4.804;2022-12-13T10:44:23;98465.03;;;3.04
74321;BMP280;62738;45.772;4.804;2022-12-13T10:49:55;98452.38;;;2.94
74321;BMP280;62738;45.772;4.804;2022-12-13T10:52:33;98451.47;;;2.70
74321;BMP280;62738;45.772;4.804;2022-12-13T10:57:58;98440.41;;;2.84
74321;BMP280;62738;45.772;4.804;2022-12-13T11:00:41;98432.00;;;3.10
74321;BMP280;62738;45.772;4.804;2022-12-13T11:03:30;98435.00;;;3.20
74321;BMP280;62738;45.772;4.804;2022-12-13T11:06:13;98433.28;;;3.45
74321;BMP280;62738;45.772;4.804;2022-12-13T11:08:40;98419.84;;;3.77
74321;BMP280;62738;45.772;4.804;2022-12-13T11:11:08;98416.38;;;3.77
74321;BMP280;62738;45.772;4.804;2022-12-13T11:13:50;98417.81;;;3.63
74321;BMP280;62738;45.772;4.804;2022-12-13T11:16:24;98425.72;;;3.66
74321;BMP280;62738;45.772;4.804;2022-12-13T11:18:55;98422.59;;;3.70
74321;BMP280;62738;45.772;4.804;2022-12-13T11:21:29;98420.31;;;3.45
74321;BMP280;62738;45.772;4.804;2022-12-13T11:23:57;98410.50;;;3.58
74321;BMP280;62738;45.772;4.804;2022-12-13T11:26:28;98415.00;;;3.91
74321;BMP280;62738;45.772;4.804;2022-12-13T11:32:09;98413.47;;;3.82
74321;BMP280;62738;45.772;4.804;2022-12-13T11:40:31;98397.44;;;4.40
74321;BMP280;62738;45.772;4.804;2022-12-13T11:43:04;98398.91;;;4.56
74321;BMP280;62738;45.772;4.804;2022-12-13T11:45:39;98388.66;;;4.49
74321;BMP280;62738;45.772;4.804;2022-12-13T11:48:20;98392.47;;;4.84
74321;BMP280;62738;45.772;4.804;2022-12-13T11:50:50;98396.31;;;4.81
74321;BMP280;62738;45.772;4.804;2022-12-13T11:55:52;98397.75;;;4.89
74321;BMP280;62738;45.772;4.804;2022-12-13T11:58:36;98380.13;;;5.00
74321;BMP280;62738;45.772;4.804;2022-12-13T12:04:16;98376.91;;;4.71
74321;BMP280;62738;45.772;4.804;2022-12-13T12:06:52;98375.44;;;4.78
74321;BMP280;62738;45.772;4.804;2022-12-13T12:09:24;98383.69;;;4.63
74321;BMP280;62738;45.772;4.804;2022-12-13T12:14:38;98361.94;;;4.42
74321;BMP280;62738;45.772;4.804;2022-12-13T12:17:14;98350.63;;;4.23
74321;BMP280;62738;45.772;4.804;2022-12-13T12:19:44;98360.66;;;4.43
74321;BMP280;62738;45.772;4.804;2022-12-13T12:30:09;98351.53;;;5.43
74321;BMP280;62738;45.772;4.804;2022-12-13T12:37:53;98353.09;;;4.81
74321;BMP280;62738;45.772;4.804;2022-12-13T12:43:39;98345.81;;;5.16
74321;BMP280;62738;45.772;4.804;2022-12-13T12:46:32;98363.97;;;5.12
74321;BMP280;62738;45.772;4.804;2022-12-13T12:55:02;98353.13;;;5.21
74321;BMP280;62738;45.772;4.804;2022-12-13T12:57:42;98352.41;;;5.13
74321;BMP280;62738;45.772;4.804;2022-12-13T13:00:17;98348.44;;;4.99
74321;BMP280;62738;45.772;4.804;2022-12-13T13:06:03;98355.84;;;4.66
74321;BMP280;62738;45.772;4.804;2022-12-13T13:08:45;98349.88;;;4.52
74321;BMP280;62738;45.772;4.804;2022-12-13T13:11:22;98351.50;;;4.40
74321;BMP280;62738;45.772;4.804;2022-12-13T13:16:37;98346.78;;;4.26
74321;BMP280;62738;45.772;4.804;2022-12-13T13:21:48;98351.72;;;4.35
74321;BMP280;62738;45.772;4.804;2022-12-13T13:24:21;98350.25;;;4.34
74321;BMP280;62738;45.772;4.804;2022-12-13T13:26:57;98356.81;;;4.38
74321;BMP280;62738;45.772;4.804;2022-12-13T13:37:54;98332.13;;;4.31
74321;BMP280;62738;45.772;4.804;2022-12-13T13:43:13;98334.34;;;4.25
74321;BMP280;62738;45.772;4.804;2022-12-13T13:48:23;98329.72;;;4.50
74321;BMP280;62738;45.772;4.804;2022-12-13T13:51:29;98321.69;;;4.37
74321;BMP280;62738;45.772;4.804;2022-12-13T13:56:44;98327.56;;;4.18
74321;BMP280;62738;45.772;4.804;2022-12-13T14:11:15;98337.03;;;4.47
74321;BMP280;62738;45.772;4.804;2022-12-13T14:30:44;98328.22;;;4.72
74321;BMP280;62738;45.772;4.804;2022-12-13T14:33:23;98323.13;;;4.45
74321;BMP280;62738;45.772;4.804;2022-12-13T14:35:55;98328.44;;;4.51
74321;BMP280;62738;45.772;4.804;2022-12-13T14:38:28;98331.78;;;4.27
74321;BMP280;62738;45.772;4.804;2022-12-13T14:40:59;98329.22;;;4.13
74321;BMP280;62738;45.772;4.804;2022-12-13T14:43:28;98325.00;;;4.12
74321;BMP280;62738;45.772;4.804;2022-12-13T14:46:01;98327.19;;;4.22
74321;BMP280;62738;45.772;4.804;2022-12-13T14:48:32;98332.31;;;4.17
74321;BMP280;62738;45.772;4.804;2022-12-13T14:51:00;98329.00;;;4.04
74321;BMP280;62738;45.772;4.804;2022-12-13T14:53:32;98320.59;;;4.02
74321;BMP280;62738;45.772;4.804;2022-12-13T14:58:36;98319.31;;;3.95
74321;BMP280;62738;45.772;4.804;2022-12-13T15:04:17;98319.69;;;3.84
74321;BMP280;62738;45.772;4.804;2022-12-13T15:06:45;98316.91;;;3.76
74321;BMP280;62738;45.772;4.804;2022-12-13T15:09:15;98320.06;;;3.88
74321;BMP280;62738;45.772;4.804;2022-12-13T15:11:43;98327.56;;;3.88
74321;BMP280;62738;45.772;4.804;2022-12-13T15:14:15;98327.75;;;3.90
74321;BMP280;62738;45.772;4.804;2022-12-13T15:16:47;98335.56;;;3.63
74321;BMP280;62738;45.772;4.804;2022-12-13T15:19:17;98350.03;;;3.71
74321;BMP280;62738;45.772;4.804;2022-12-13T15:21:58;98341.78;;;3.63
74321;BMP280;62738;45.772;4.804;2022-12-13T15:24:28;98331.56;;;3.64
74321;BMP280;62738;45.772;4.804;2022-12-13T15:26:57;98335.75;;;3.72
74321;BMP280;62738;45.772;4.804;2022-12-13T15:29:27;98330.09;;;3.70
74321;BMP280;62738;45.772;4.804;2022-12-13T15:31:54;98333.91;;;3.75
74321;BMP280;62738;45.772;4.804;2022-12-13T15:37:05;98320.41;;;4.00
74321;BMP280;62738;45.772;4.804;2022-12-13T15:39:58;98324.09;;;3.87
74321;BMP280;62738;45.772;4.804;2022-12-13T15:44:58;98311.09;;;3.95
74321;BMP280;62738;45.772;4.804;2022-12-13T15:47:25;98312.22;;;4.15
74321;BMP280;62738;45.772;4.804;2022-12-13T15:50:03;98312.56;;;3.96
74321;BMP280;62738;45.772;4.804;2022-12-13T15:52:38;98307.78;;;4.04
74321;BMP280;62738;45.772;4.804;2022-12-13T15:57:48;98305.44;;;3.93
74321;BMP280;62738;45.772;4.804;2022-12-13T16:05:27;98316.03;;;4.04
74321;BMP280;62738;45.772;4.804;2022-12-13T16:07:55;98319.53;;;3.90
74321;BMP280;62738;45.772;4.804;2022-12-13T16:10:23;98322.06;;;3.88
74321;BMP280;62738;45.772;4.804;2022-12-13T16:13:15;98311.09;;;3.80
74321;BMP280;62738;45.772;4.804;2022-12-13T16:16:35;98321.69;;;3.68
74321;BMP280;62738;45.772;4.804;2022-12-13T16:18:58;98312.34;;;3.79
74321;BMP280;62738;45.772;4.804;2022-12-13T16:21:26;98319.50;;;3.82
74321;BMP280;62738;45.772;4.804;2022-12-13T16:23:53;98320.22;;;3.82
74321;BMP280;62738;45.772;4.804;2022-12-13T16:26:22;98322.41;;;3.76
74321;BMP280;62738;45.772;4.804;2022-12-13T16:28:54;98323.84;;;3.55
74321;BMP280;62738;45.772;4.804;2022-12-13T16:31:26;98322.72;;;3.50
74321;BMP280;62738;45.772;4.804;2022-12-13T16:33:53;98318.94;;;3.61
74321;BMP280;62738;45.772;4.804;2022-12-13T16:36:20;98309.03;;;3.50
74321;BMP280;62738;45.772;4.804;2022-12-13T16:38:46;98298.94;;;3.37
74321;BMP280;62738;45.772;4.804;2022-12-13T16:41:13;98296.81;;;3.59
74321;BMP280;62738;45.772;4.804;2022-12-13T16:44:05;98291.88;;;3.72
74321;BMP280;62738;45.772;4.804;2022-12-13T16:46:32;98279.66;;;3.96
74321;BMP280;62738;45.772;4.804;2022-12-13T16:49:20;98286.94;;;3.71
74321;BMP280;62738;45.772;4.804;2022-12-13T16:51:47;98288.59;;;3.66
74321;BMP280;62738;45.772;4.804;2022-12-13T16:54:15;98298.06;;;3.50
74321;BMP280;62738;45.772;4.804;2022-12-13T16:56:42;98299.75;;;3.68
74321;BMP280;62738;45.772;4.804;2022-12-13T16:59:13;98297.19;;;3.78
74321;BMP280;62738;45.772;4.804;2022-12-13T17:01:40;98296.44;;;3.70
74321;BMP280;62738;45.772;4.804;2022-12-13T17:04:10;98298.84;;;3.81
74321;BMP280;62738;45.772;4.804;2022-12-13T17:06:45;98289.50;;;3.69
74321;BMP280;62738;45.772;4.804;2022-12-13T17:09:12;98288.59;;;3.59
74321;BMP280;62738;45.772;4.804;2022-12-13T17:11:39;98292.97;;;3.62
74321;BMP280;62738;45.772;4.804;2022-12-13T17:14:05;98296.44;;;3.62
74321;BMP280;62738;45.772;4.804;2022-12-13T17:16:32;98297.72;;;3.61
74321;BMP280;62738;45.772;4.804;2022-12-13T17:18:59;98285.13;;;3.66
74321;BMP280;62738;45.772;4.804;2022-12-13T17:21:26;98285.50;;;3.62
74321;BMP280;62738;45.772;4.804;2022-12-13T17:23:57;98291.09;;;3.41
74321;BMP280;62738;45.772;4.804;2022-12-13T17:26:26;98296.44;;;3.62
74321;BMP280;62738;45.772;4.804;2022-12-13T17:28:53;98290.63;;;3.66
74321;BMP280;62738;45.772;4.804;2022-12-13T17:31:20;98284.41;;;3.88
74321;BMP280;62738;45.772;4.804;2022-12-13T17:33:47;98286.03;;;3.68
74321;BMP280;62738;45.772;4.804;2022-12-13T17:36:14;98286.41;;;3.72
74321;BMP280;62738;45.772;4.804;2022-12-13T17:38:45;98281.47;;;3.71
74321;BMP280;62738;45.772;4.804;2022-12-13T17:41:13;98278.72;;;3.71
74321;BMP280;62738;45.772;4.804;2022-12-13T17:43:40;98282.22;;;3.87
74321;BMP280;62738;45.772;4.804;2022-12-13T17:46:13;98278.34;;;3.82
74321;BMP280;62738;45.772;4.804;2022-12-13T17:48:40;98272.84;;;3.74
74321;BMP280;62738;45.772;4.804;2022-12-13T17:51:11;98284.94;;;3.79
74321;BMP280;62738;45.772;4.804;2022-12-13T17:53:39;98276.88;;;3.73
74321;BMP280;62738;45.772;4.804;2022-12-13T17:56:08;98284.56;;;3.67
74321;BMP280;62738;45.772;4.804;2022-12-13T17:58:37;98293.91;;;3.79
74321;BMP280;62738;45.772;4.804;2022-12-13T18:01:20;98301.78;;;3.91
74321;BMP280;62738;45.772;4.804;2022-12-13T18:03:48;98288.59;;;3.97
74321;BMP280;62738;45.772;4.804;2022-12-13T18:06:16;98284.00;;;3.99
74321;BMP280;62738;45.772;4.804;2022-12-13T18:08:44;98291.00;;;3.93
74321;BMP280;62738;45.772;4.804;2022-12-13T18:11:12;98281.47;;;3.78
74321;BMP280;62738;45.772;4.804;2022-12-13T18:14:01;98284.41;;;3.65